Ater, Texas
Current Conditions -  °F | °C
As of 10:35 AM on Friday 31 Oct 2014 (Local Time) from KGOP Reporting Station
Clear Clear  
Wind Chill: 63°   Ceiling: Unl
Heat Index: 63°   Visibility: 10mi
Dew Point: 41°   Wind: 8mph
Humidity: 45%   Direction: 20°NNE
Pressure: 30.35"   Gusts: NA
Location:  31.392°N, 97.7452°W
Report Text: KGOP 311535Z AUTO 02007KT 10SM CLR 17/05 A3035 RMK AO2
Loading
Personal Weather Stations






























Interactive Weather Map
Tropical Storm Tracking
New forecast layout! Learn more

10-Day Weather Forecast

Advertisements
Track Severe Weather on mobile